createdAt,value
2023-02-21T00:00:52.810Z,13.95
2023-02-21T00:03:39.188Z,14.77
2023-02-21T00:06:27.532Z,17.58
2023-02-21T00:09:13.796Z,14.68
2023-02-21T00:12:02.694Z,14.50
2023-02-21T00:14:50.691Z,17.00
2023-02-21T00:17:38.760Z,17.75
2023-02-21T00:20:26.281Z,17.10
2023-02-21T00:23:13.266Z,14.07
2023-02-21T00:25:59.540Z,18.85
2023-02-21T00:28:46.923Z,20.45
2023-02-21T00:31:33.164Z,15.68
2023-02-21T00:34:25.598Z,16.42
2023-02-21T00:37:19.352Z,11.52
2023-02-21T00:40:05.552Z,16.80
2023-02-21T00:42:57.358Z,14.93
2023-02-21T00:45:51.082Z,7.80
2023-02-21T00:48:40.639Z,11.13
2023-02-21T00:51:26.962Z,11.75
2023-02-21T00:54:20.057Z,10.40
2023-02-21T00:57:07.492Z,11.25
2023-02-21T00:59:54.342Z,9.18
2023-02-21T01:02:40.230Z,12.40
2023-02-21T01:05:27.496Z,6.68
2023-02-21T01:08:15.286Z,7.68
2023-02-21T01:11:03.416Z,12.95
2023-02-21T01:13:49.741Z,10.45
2023-02-21T01:16:37.563Z,11.23
2023-02-21T01:19:23.526Z,12.50
2023-02-21T01:22:10.380Z,14.63
2023-02-21T01:24:58.296Z,14.80
2023-02-21T01:27:45.152Z,14.18
2023-02-21T01:30:32.421Z,11.13
2023-02-21T01:33:24.562Z,14.95
2023-02-21T01:36:18.425Z,17.02
2023-02-21T01:39:04.752Z,16.60
2023-02-21T01:41:50.847Z,16.77
2023-02-21T01:45:10.518Z,19.98
2023-02-21T01:47:57.389Z,14.18
2023-02-21T01:50:50.389Z,17.13
2023-02-21T01:53:39.742Z,14.68
2023-02-21T01:56:33.132Z,13.57
2023-02-21T01:59:21.158Z,18.60
2023-02-21T02:02:29.591Z,16.73
2023-02-21T02:05:16.149Z,13.82
2023-02-21T02:08:06.247Z,18.00
2023-02-21T02:11:04.210Z,15.52
2023-02-21T02:13:41.495Z,21.63
2023-02-21T02:16:29.347Z,21.40
2023-02-21T02:19:09.807Z,14.95
2023-02-21T02:21:42.838Z,17.88
2023-02-21T02:24:13.028Z,17.27
2023-02-21T02:27:00.215Z,14.77
2023-02-21T02:29:38.499Z,19.38
2023-02-21T02:32:27.180Z,16.63
2023-02-21T02:35:13.205Z,15.60
2023-02-21T02:38:07.663Z,19.75
2023-02-21T02:40:50.162Z,16.50
2023-02-21T02:43:28.313Z,15.02
2023-02-21T02:46:09.703Z,19.27
2023-02-21T02:51:12.549Z,9.43
2023-02-21T02:53:40.279Z,15.93
2023-02-21T02:56:12.174Z,18.02
2023-02-21T02:58:43.663Z,17.08
2023-02-21T03:01:25.889Z,16.77
2023-02-21T03:03:55.108Z,20.70
2023-02-21T03:06:41.210Z,17.77
2023-02-21T03:09:38.063Z,16.58
2023-02-21T03:12:41.660Z,16.17
2023-02-21T03:15:11.737Z,16.15
2023-02-21T03:17:41.416Z,12.05
2023-02-21T03:20:17.345Z,17.05
2023-02-21T03:22:46.653Z,19.30
2023-02-21T03:25:15.869Z,17.90
2023-02-21T03:27:50.498Z,17.48
2023-02-21T03:30:27.906Z,16.63
2023-02-21T03:32:57.457Z,15.73
2023-02-21T03:35:24.910Z,16.27
2023-02-21T03:37:54.693Z,19.80
2023-02-21T03:40:24.742Z,19.25
2023-02-21T03:42:57.115Z,21.38
2023-02-21T03:45:30.233Z,17.73
2023-02-21T03:48:00.936Z,18.50
2023-02-21T03:50:39.371Z,16.15
2023-02-21T03:53:09.712Z,20.80
2023-02-21T03:55:42.063Z,21.75
2023-02-21T03:58:10.373Z,19.80
2023-02-21T04:00:39.763Z,21.15
2023-02-21T04:03:06.925Z,18.42
2023-02-21T04:05:37.131Z,14.85
2023-02-21T04:08:13.288Z,23.75
2023-02-21T04:10:51.553Z,23.25
2023-02-21T04:13:25.725Z,20.58
2023-02-21T04:15:59.879Z,25.70
2023-02-21T04:18:28.174Z,24.00
2023-02-21T04:20:56.414Z,23.90
2023-02-21T04:23:35.894Z,22.65
2023-02-21T04:26:12.103Z,23.85
2023-02-21T04:28:39.481Z,20.92
2023-02-21T04:31:06.658Z,20.45
2023-02-21T04:33:43.060Z,17.48
2023-02-21T04:36:10.418Z,19.27
2023-02-21T04:38:38.650Z,21.63
2023-02-21T04:41:07.252Z,24.30
2023-02-21T04:43:37.693Z,18.90
2023-02-21T04:46:18.895Z,25.07
2023-02-21T04:48:50.268Z,18.55
2023-02-21T04:53:47.847Z,23.00
2023-02-21T04:56:18.681Z,23.40
2023-02-21T04:58:46.228Z,20.52
2023-02-21T05:01:19.120Z,25.42
2023-02-21T05:03:49.157Z,19.90
2023-02-21T05:06:22.065Z,26.17
2023-02-21T05:08:52.487Z,20.48
2023-02-21T05:11:20.952Z,23.17
2023-02-21T05:13:51.261Z,19.85
2023-02-21T05:16:18.954Z,19.90
2023-02-21T05:18:57.688Z,20.10
2023-02-21T05:21:39.986Z,21.38
2023-02-21T05:24:08.537Z,24.73
2023-02-21T05:26:42.115Z,18.77
2023-02-21T05:29:24.619Z,26.40
2023-02-21T05:31:53.031Z,18.50
2023-02-21T05:34:32.108Z,22.92
2023-02-21T05:37:01.345Z,22.15
2023-02-21T05:39:30.532Z,25.25
2023-02-21T05:41:57.643Z,26.77
2023-02-21T05:44:24.744Z,19.45
2023-02-21T05:46:54.432Z,29.17
2023-02-21T05:49:29.187Z,27.42
2023-02-21T05:51:56.546Z,24.98
2023-02-21T05:54:32.872Z,22.00
2023-02-21T05:57:01.190Z,22.60
2023-02-21T05:59:34.404Z,28.02
2023-02-21T06:02:05.857Z,21.92
2023-02-21T06:04:34.318Z,25.83
2023-02-21T06:07:01.560Z,14.70
2023-02-21T06:09:31.092Z,23.83
2023-02-21T06:11:58.414Z,26.20
2023-02-21T06:14:25.577Z,22.75
2023-02-21T06:16:52.882Z,19.77
2023-02-21T06:19:20.295Z,25.92
2023-02-21T06:21:47.902Z,25.10
2023-02-21T06:24:15.305Z,28.75
2023-02-21T06:26:42.769Z,28.83
2023-02-21T06:29:11.149Z,25.65
2023-02-21T06:31:48.928Z,21.70
2023-02-21T06:34:18.104Z,26.52
2023-02-21T06:36:45.447Z,28.23
2023-02-21T06:39:13.742Z,26.65
2023-02-21T06:41:40.932Z,20.65
2023-02-21T06:44:08.238Z,26.10
2023-02-21T06:46:37.109Z,23.35
2023-02-21T06:49:05.663Z,26.23
2023-02-21T06:51:36.838Z,26.48
2023-02-21T06:54:04.317Z,24.85
2023-02-21T06:56:34.914Z,24.40
2023-02-21T06:59:02.154Z,24.42
2023-02-21T07:01:37.293Z,23.67
2023-02-21T07:04:04.557Z,27.13
2023-02-21T07:06:33.582Z,24.80
2023-02-21T07:09:00.787Z,17.13
2023-02-21T07:11:34.079Z,25.00
2023-02-21T07:14:03.542Z,24.65
2023-02-21T07:16:31.824Z,25.10
2023-02-21T07:18:59.347Z,23.42
2023-02-21T07:21:27.420Z,26.55
2023-02-21T07:23:56.758Z,17.85
2023-02-21T07:26:26.599Z,21.33
2023-02-21T07:28:56.012Z,20.88
2023-02-21T07:31:27.372Z,26.63
2023-02-21T07:36:27.780Z,26.30
2023-02-21T07:39:00.430Z,27.88
2023-02-21T07:41:27.586Z,25.88
2023-02-21T07:44:01.078Z,19.92
2023-02-21T07:46:31.560Z,27.02
2023-02-21T07:48:59.773Z,24.92
2023-02-21T07:51:33.086Z,19.73
2023-02-21T07:54:00.434Z,35.03
2023-02-21T07:56:33.550Z,29.02
2023-02-21T07:59:03.911Z,28.92
2023-02-21T08:01:31.379Z,25.40
2023-02-21T08:04:02.006Z,30.02
2023-02-21T08:06:29.429Z,24.42
2023-02-21T08:08:56.703Z,32.88
2023-02-21T08:11:25.928Z,33.95
2023-02-21T08:13:53.240Z,34.58
2023-02-21T08:16:20.772Z,30.88
2023-02-21T08:18:51.622Z,31.48
2023-02-21T08:21:20.979Z,30.17
2023-02-21T08:23:48.616Z,34.45
2023-02-21T08:26:17.270Z,29.45
2023-02-21T08:28:45.413Z,24.98
2023-02-21T08:31:22.665Z,20.45
2023-02-21T08:33:53.105Z,35.17
2023-02-21T08:36:20.510Z,25.30
2023-02-21T08:38:49.684Z,34.15
2023-02-21T08:41:26.485Z,34.10
2023-02-21T08:43:56.955Z,34.92
2023-02-21T08:46:24.741Z,33.83
2023-02-21T08:49:01.514Z,34.60
2023-02-21T08:51:34.353Z,31.45
2023-02-21T08:54:01.990Z,33.75
2023-02-21T08:56:30.714Z,34.60
2023-02-21T08:58:59.154Z,32.95
2023-02-21T09:01:33.852Z,32.13
2023-02-21T09:04:01.821Z,33.35
2023-02-21T09:06:30.957Z,26.90
2023-02-21T09:09:00.476Z,29.67
2023-02-21T09:11:27.878Z,28.13
2023-02-21T09:13:57.222Z,25.50
2023-02-21T09:16:31.314Z,24.40
2023-02-21T09:19:06.924Z,22.05
2023-02-21T09:21:36.655Z,24.17
2023-02-21T09:24:05.662Z,22.70
2023-02-21T09:26:40.322Z,23.63
2023-02-21T09:29:13.791Z,22.20
2023-02-21T09:31:43.231Z,18.50
2023-02-21T09:34:13.090Z,11.90
2023-02-21T09:36:40.401Z,21.45
2023-02-21T09:39:07.859Z,17.70
2023-02-21T09:41:36.456Z,18.10
2023-02-21T09:44:06.937Z,13.65
2023-02-21T09:46:39.853Z,20.42
2023-02-21T09:49:17.687Z,17.38
2023-02-21T09:51:45.182Z,18.25
2023-02-21T09:54:31.224Z,16.33
2023-02-21T09:57:02.635Z,15.90
2023-02-21T09:59:37.356Z,11.45
2023-02-21T10:02:16.187Z,17.00
2023-02-21T10:04:56.283Z,11.93
2023-02-21T10:07:32.178Z,16.33
2023-02-21T10:10:18.404Z,15.80
2023-02-21T10:13:03.259Z,11.05
2023-02-21T10:15:55.436Z,17.23
2023-02-21T10:18:41.177Z,11.10
2023-02-21T10:21:30.865Z,12.27
2023-02-21T10:24:04.659Z,14.05
2023-02-21T10:26:35.743Z,14.00
2023-02-21T10:29:30.399Z,8.38
2023-02-21T10:32:02.625Z,12.93
2023-02-21T10:34:33.515Z,12.30
2023-02-21T10:37:24.149Z,13.68
2023-02-21T10:39:53.337Z,13.77
2023-02-21T10:42:28.622Z,13.80
2023-02-21T10:44:56.418Z,13.52
2023-02-21T10:47:33.774Z,12.63
2023-02-21T10:50:08.335Z,9.23
2023-02-21T10:52:52.642Z,13.85
2023-02-21T10:55:32.153Z,13.23
2023-02-21T10:58:19.798Z,12.57
2023-02-21T11:00:48.976Z,11.88
2023-02-21T11:03:19.285Z,12.30
2023-02-21T11:05:57.958Z,10.40
2023-02-21T11:08:41.391Z,11.93
2023-02-21T11:11:09.055Z,11.48
2023-02-21T11:13:38.804Z,10.55
2023-02-21T11:16:16.425Z,13.10
2023-02-21T11:18:43.707Z,11.68
2023-02-21T11:21:16.241Z,10.25
2023-02-21T11:23:49.986Z,12.05
2023-02-21T11:26:26.710Z,7.32
2023-02-21T11:28:55.083Z,10.70
2023-02-21T11:31:29.316Z,10.70
2023-02-21T11:34:04.843Z,11.20
2023-02-21T11:36:42.760Z,9.20
2023-02-21T11:39:23.744Z,8.15
2023-02-21T11:41:51.128Z,10.65
2023-02-21T11:44:27.625Z,9.38
2023-02-21T11:47:16.855Z,13.63
2023-02-21T11:49:46.875Z,10.88
2023-02-21T11:52:19.774Z,10.70
2023-02-21T11:54:49.048Z,10.73
2023-02-21T11:57:33.477Z,9.18
2023-02-21T12:00:25.277Z,5.35
2023-02-21T12:03:08.519Z,9.07
2023-02-21T12:05:48.294Z,8.20
2023-02-21T12:08:17.575Z,8.30
2023-02-21T12:10:59.845Z,8.82
2023-02-21T12:13:32.228Z,8.48
2023-02-21T12:16:06.207Z,7.15
2023-02-21T12:18:42.963Z,7.22
2023-02-21T12:21:32.809Z,8.13
2023-02-21T12:24:10.223Z,7.75
2023-02-21T12:26:52.909Z,7.45
2023-02-21T12:29:30.430Z,8.00
2023-02-21T12:32:22.165Z,6.70
2023-02-21T12:34:53.375Z,6.88
2023-02-21T12:37:21.646Z,7.57
2023-02-21T12:40:07.803Z,6.90
2023-02-21T12:42:53.865Z,6.30
2023-02-21T12:45:40.598Z,6.88
2023-02-21T12:48:30.851Z,7.47
2023-02-21T12:51:08.519Z,7.47
2023-02-21T12:53:35.759Z,6.93
2023-02-21T12:56:09.075Z,8.93
2023-02-21T12:59:03.235Z,7.82
2023-02-21T13:01:36.725Z,8.23
2023-02-21T13:04:10.329Z,7.28
2023-02-21T13:06:43.237Z,7.22
2023-02-21T13:09:26.953Z,5.72
2023-02-21T13:12:01.089Z,4.53
2023-02-21T13:14:48.762Z,4.57
2023-02-21T13:17:18.716Z,5.53
2023-02-21T13:20:07.223Z,5.78
2023-02-21T13:22:56.511Z,5.57
2023-02-21T13:25:30.556Z,5.72
2023-02-21T13:27:57.955Z,8.43
2023-02-21T13:30:29.317Z,6.38
2023-02-21T13:35:36.276Z,6.30
2023-02-21T13:38:12.698Z,7.78
2023-02-21T13:40:52.258Z,6.80
2023-02-21T13:43:29.213Z,7.63
2023-02-21T13:46:18.814Z,7.13
2023-02-21T13:49:10.416Z,7.85
2023-02-21T13:54:13.576Z,7.57
2023-02-21T13:56:43.029Z,8.25
2023-02-21T13:59:28.891Z,8.57
2023-02-21T14:02:24.041Z,8.00
2023-02-21T14:05:00.310Z,7.57
2023-02-21T14:07:46.696Z,8.10
2023-02-21T14:10:32.804Z,8.15
2023-02-21T14:13:04.930Z,9.02
2023-02-21T14:15:44.911Z,7.15
2023-02-21T14:18:31.499Z,9.50
2023-02-21T14:20:58.960Z,9.73
2023-02-21T14:23:48.550Z,8.63
2023-02-21T14:26:56.735Z,11.40
2023-02-21T14:29:39.232Z,8.57
2023-02-21T14:32:10.224Z,10.32
2023-02-21T14:34:44.518Z,9.85
2023-02-21T14:37:30.492Z,10.30
2023-02-21T14:40:00.360Z,10.15
2023-02-21T14:42:33.300Z,9.88
2023-02-21T14:45:15.610Z,7.82
2023-02-21T14:47:43.704Z,10.18
2023-02-21T14:50:31.581Z,8.98
2023-02-21T14:53:16.379Z,5.07
2023-02-21T14:56:02.125Z,9.85
2023-02-21T14:58:54.351Z,7.82
2023-02-21T15:01:39.527Z,8.80
2023-02-21T15:04:16.840Z,8.15
2023-02-21T15:06:53.230Z,8.25
2023-02-21T15:09:32.602Z,6.82
2023-02-21T15:12:02.506Z,8.15
2023-02-21T15:14:33.486Z,8.60
2023-02-21T15:17:12.327Z,5.95
2023-02-21T15:19:40.016Z,6.68
2023-02-21T15:22:15.000Z,6.68
2023-02-21T15:24:42.679Z,7.25
2023-02-21T15:27:15.921Z,7.85
2023-02-21T15:29:44.292Z,6.82
2023-02-21T15:32:13.208Z,6.20
2023-02-21T15:34:45.675Z,7.07
2023-02-21T15:37:24.914Z,6.63
2023-02-21T15:40:01.066Z,7.00
2023-02-21T15:42:28.841Z,7.43
2023-02-21T15:45:00.317Z,7.43
2023-02-21T15:47:30.464Z,7.70
2023-02-21T15:50:03.679Z,9.00
2023-02-21T15:52:39.075Z,9.02
2023-02-21T15:55:24.249Z,8.95
2023-02-21T15:58:16.483Z,11.63
2023-02-21T16:00:48.872Z,12.20
2023-02-21T16:03:30.153Z,9.27
2023-02-21T16:06:18.551Z,12.48
2023-02-21T16:09:05.461Z,10.23
2023-02-21T16:11:48.106Z,11.73
2023-02-21T16:14:36.133Z,8.02
2023-02-21T16:17:21.692Z,11.70
2023-02-21T16:19:56.190Z,11.32
2023-02-21T16:23:08.031Z,13.23
2023-02-21T16:25:35.956Z,13.13
2023-02-21T16:28:03.393Z,14.27
2023-02-21T16:30:39.195Z,13.75
2023-02-21T16:33:06.830Z,11.98
2023-02-21T16:35:34.497Z,13.93
2023-02-21T16:38:02.765Z,15.55
2023-02-21T16:40:33.865Z,14.05
2023-02-21T16:43:02.190Z,13.60
2023-02-21T16:45:30.234Z,15.95
2023-02-21T16:48:01.338Z,15.80
2023-02-21T16:50:36.674Z,18.65
2023-02-21T16:53:07.834Z,17.05
2023-02-21T16:55:37.255Z,17.05
2023-02-21T16:58:06.730Z,13.55
2023-02-21T17:00:35.573Z,9.93
2023-02-21T17:03:03.701Z,8.40
2023-02-21T17:05:30.999Z,12.30
2023-02-21T17:08:06.732Z,13.15
2023-02-21T17:10:42.479Z,13.18
2023-02-21T17:13:16.921Z,12.95
2023-02-21T17:15:45.473Z,13.95
2023-02-21T17:18:22.626Z,13.68
2023-02-21T17:20:49.764Z,11.60
2023-02-21T17:23:18.694Z,13.07
2023-02-21T17:25:49.297Z,14.05
2023-02-21T17:28:19.049Z,13.40
2023-02-21T17:30:47.594Z,12.90
2023-02-21T17:33:15.327Z,14.90
2023-02-21T17:35:42.718Z,13.55
2023-02-21T17:38:24.927Z,13.80
2023-02-21T17:40:54.246Z,13.15
2023-02-21T17:43:21.640Z,12.95
2023-02-21T17:45:52.071Z,13.90
2023-02-21T17:48:33.523Z,13.20
2023-02-21T17:53:35.372Z,18.08
2023-02-21T17:56:05.836Z,14.45
2023-02-21T17:58:36.131Z,13.00
2023-02-21T18:01:05.433Z,15.77
2023-02-21T18:03:32.674Z,17.08
2023-02-21T18:06:00.106Z,16.60
2023-02-21T18:08:29.327Z,16.85
2023-02-21T18:10:59.829Z,15.50
2023-02-21T18:13:28.232Z,16.60
2023-02-21T18:15:56.736Z,15.32
2023-02-21T18:18:23.903Z,15.50
2023-02-21T18:20:52.283Z,14.55
2023-02-21T18:23:29.058Z,14.63
2023-02-21T18:26:05.783Z,14.50
2023-02-21T18:28:39.221Z,14.32
2023-02-21T18:31:10.003Z,17.50
2023-02-21T18:33:39.110Z,32.45
2023-02-21T18:36:12.629Z,63.15
2023-02-21T18:38:41.573Z,27.27
2023-02-21T18:41:12.915Z,25.35
2023-02-21T18:43:44.101Z,26.02
2023-02-21T18:46:14.004Z,26.10
2023-02-21T18:48:46.254Z,29.05
2023-02-21T18:51:15.884Z,33.85
2023-02-21T18:53:48.535Z,27.00
2023-02-21T18:56:19.443Z,25.83
2023-02-21T18:58:49.692Z,28.48
2023-02-21T19:01:19.342Z,28.58
2023-02-21T19:03:53.458Z,31.80
2023-02-21T19:06:22.648Z,27.77
2023-02-21T19:08:53.737Z,28.48
2023-02-21T19:11:22.941Z,27.63
2023-02-21T19:13:51.220Z,29.23
2023-02-21T19:16:20.191Z,29.50
2023-02-21T19:18:59.841Z,26.85
2023-02-21T19:21:27.537Z,29.55
2023-02-21T19:23:56.988Z,27.00
2023-02-21T19:26:24.290Z,28.90
2023-02-21T19:28:57.018Z,30.45
2023-02-21T19:31:24.326Z,28.23
2023-02-21T19:33:51.526Z,27.70
2023-02-21T19:36:22.324Z,29.05
2023-02-21T19:38:59.502Z,26.67
2023-02-21T19:41:28.317Z,27.08
2023-02-21T19:43:59.435Z,28.05
2023-02-21T19:46:28.881Z,25.00
2023-02-21T19:48:59.699Z,24.25
2023-02-21T19:51:30.514Z,24.55
2023-02-21T19:54:00.258Z,23.88
2023-02-21T19:56:28.883Z,22.63
2023-02-21T19:59:04.211Z,23.15
2023-02-21T20:01:33.910Z,24.00
2023-02-21T20:04:03.299Z,23.20
2023-02-21T20:06:35.406Z,23.38
2023-02-21T20:09:03.749Z,22.08
2023-02-21T20:11:31.104Z,24.30
2023-02-21T20:14:05.535Z,23.50
2023-02-21T20:16:37.805Z,23.65
2023-02-21T20:19:07.429Z,22.52
2023-02-21T20:21:34.896Z,26.02
2023-02-21T20:24:03.584Z,24.35
2023-02-21T20:26:36.759Z,26.73
2023-02-21T20:29:13.034Z,24.17
2023-02-21T20:31:48.465Z,25.50
2023-02-21T20:34:15.710Z,24.42
2023-02-21T20:36:48.345Z,25.50
2023-02-21T20:39:28.423Z,25.05
2023-02-21T20:41:56.455Z,25.85
2023-02-21T20:44:34.333Z,27.25
2023-02-21T20:47:01.978Z,35.15
2023-02-21T20:49:29.464Z,41.22
2023-02-21T20:51:58.302Z,35.65
2023-02-21T20:54:26.562Z,42.65
2023-02-21T20:57:03.478Z,35.50
2023-02-21T20:59:37.096Z,32.00
2023-02-21T21:02:04.852Z,48.95
2023-02-21T21:04:37.769Z,41.53
2023-02-21T21:07:06.755Z,33.63
2023-02-21T21:09:35.736Z,31.20
2023-02-21T21:12:07.400Z,30.92
2023-02-21T21:14:53.066Z,29.50
2023-02-21T21:17:21.819Z,39.60
2023-02-21T21:19:51.216Z,31.05
2023-02-21T21:22:28.963Z,28.88
2023-02-21T21:25:08.822Z,28.33
2023-02-21T21:27:36.348Z,28.48
2023-02-21T21:30:13.214Z,29.02
2023-02-21T21:32:46.644Z,30.83
2023-02-21T21:35:17.080Z,28.08
2023-02-21T21:37:44.228Z,29.57
2023-02-21T21:40:17.609Z,27.58
2023-02-21T21:42:45.862Z,29.48
2023-02-21T21:45:18.635Z,29.50
2023-02-21T21:47:47.908Z,27.10
2023-02-21T21:50:16.118Z,34.28
2023-02-21T21:52:51.979Z,32.30
2023-02-21T21:55:24.516Z,29.02
2023-02-21T21:57:53.796Z,29.63
2023-02-21T22:00:25.214Z,34.38
2023-02-21T22:05:35.398Z,28.73
2023-02-21T22:08:04.678Z,29.70
2023-02-21T22:10:34.109Z,25.27
2023-02-21T22:13:13.507Z,25.42
2023-02-21T22:15:42.602Z,29.02
2023-02-21T22:18:12.087Z,27.58
2023-02-21T22:20:39.582Z,27.10
2023-02-21T22:23:08.230Z,26.90
2023-02-21T22:25:41.599Z,25.17
2023-02-21T22:28:18.658Z,27.67
2023-02-21T22:30:46.301Z,24.77
2023-02-21T22:33:15.696Z,28.08
2023-02-21T22:35:43.114Z,26.95
2023-02-21T22:38:14.385Z,29.17
2023-02-21T22:43:21.413Z,26.60
2023-02-21T22:45:58.177Z,26.50
2023-02-21T22:48:26.149Z,26.85
2023-02-21T22:50:55.364Z,25.77
2023-02-21T22:53:23.648Z,24.10
2023-02-21T22:55:53.299Z,24.80
2023-02-21T22:58:26.435Z,24.73
2023-02-21T23:00:53.790Z,24.23
2023-02-21T23:03:21.346Z,24.85
2023-02-21T23:05:53.549Z,25.10
2023-02-21T23:08:29.477Z,24.75
2023-02-21T23:10:56.705Z,25.35
2023-02-21T23:13:31.160Z,24.35
2023-02-21T23:15:59.491Z,24.90
2023-02-21T23:18:28.980Z,24.27
2023-02-21T23:20:58.036Z,26.10
2023-02-21T23:23:33.160Z,23.30
2023-02-21T23:26:10.020Z,23.40
2023-02-21T23:28:41.466Z,23.42
2023-02-21T23:31:13.553Z,23.73
2023-02-21T23:33:52.976Z,24.48
2023-02-21T23:36:23.172Z,23.85
2023-02-21T23:38:52.762Z,23.40
2023-02-21T23:41:20.025Z,21.92
2023-02-21T23:44:57.280Z,23.85
2023-02-21T23:47:26.963Z,22.75
2023-02-21T23:50:01.294Z,23.15
2023-02-21T23:52:29.437Z,22.98
2023-02-21T23:54:57.828Z,23.60
2023-02-21T23:57:26.148Z,25.80
2023-02-21T23:59:56.575Z,23.27
